La Crosse, KS (67548)

1:50 AM CDT on September 17, 2014 (GMT -0500)
Rural Ellis Co. | Change Station
CLOSE
Current Station
Personal Weather Station
Location: Hays, KS
Elevation: 2077 ft
Nearby Weather Stations

Elev 2077 ft 38.81 °N, 99.37 °W | Updated 6 minutes ago

Clear
Clear
62.1 °F
Feels Like 62.1 °F
N
0.0
Wind Variable Wind from ESE

Today
High -- | Low -- °F
--% Chance of Precip.
Yesterday
High -- | Low -- °F
Precip. -- in
7:20 AM 7:42 PM
Last Quarter, 38% visible
Pressure 29.94 in
Visibility 10.0 miles
Clouds Clear
Dew Point 62 °F
Humidity 99%
Rainfall 0.00 in
Snow Depth Not available.
UV 0 out of 12
Pollen 6.90 out of 12
Air Quality Not available.
Flu Activity Not available.
METAR KHYS 170635Z 00000KT 10SM CLR 17/14 A2994 RMK AO1

More Conditions Fewer Conditions

Pressure 29.94 in
Visibility 10.0 miles
Clouds Clear
Dew Point 62 °F
Humidity 99%
Rainfall 0.00 in
Snow Depth Not available.
UV 0 out of 12
Pollen 6.90 out of 12
Air Quality Not available.
Flu Activity Not available.
METAR KHYS 170635Z 00000KT 10SM CLR 17/14 A2994 RMK AO1

More Conditions Fewer Conditions

10-Day Weather Forecast

Almanac

Astronomy

Sep. 17, 2014 Rise Set
Actual Time 7:20 AM CDT 7:42 PM CDT
Civil Twilight 6:54 AM CDT 8:08 PM CDT
Nautical Twilight 6:22 AM CDT 8:39 PM CDT
Astronomical Twilight 5:50 AM CDT 9:11 PM CDT
Moon 1:25 AM CDT 3:50 PM CDT
Length of Visible Light 13h 14m
Length of Day
12h 21m
Tomorrow will be 2m 28s shorter.
Last Quarter, 38% of the Moon is Illuminated
Today
Last Quarter
Sep 24
New
Oct 1
First Quarter
Oct 8
Full
Oct 15
Last Quarter

Today's Extremes

State Highs State Lows

Community

WunderPhotos

Upload Photos

1,753,970 photos uploaded!

Nearby

Snow Depth

Station Depth Elevation
No new snow has been reported.

Earthquake Activity

City Distance Mag. Time & Date
Medford, Oklahoma 148 miles 3.3 5:35 PM CDT
2014-09-16
Cherokee, Oklahoma 139 miles 2.6 2:21 PM CDT
2014-09-16
Medford, Oklahoma 148 miles 2.6 3:18 AM CDT
2014-09-16
Enid, Oklahoma 149 miles 3.1 8:27 AM CDT
2014-09-15
Minimum magnitude displayed is 2.5.

Coastal Water Temperatures

Place Temperature
No Stations Reporting

Nearby Weather Stations